createdAt,value
2019-03-17T00:00:28.610Z,997.78
2019-03-17T00:01:28.592Z,997.73
2019-03-17T00:02:28.590Z,997.7
2019-03-17T00:03:28.562Z,997.78
2019-03-17T00:04:31.574Z,997.74
2019-03-17T00:05:28.504Z,997.66
2019-03-17T00:06:28.482Z,997.71
2019-03-17T00:07:28.465Z,997.73
2019-03-17T00:08:28.440Z,997.63
2019-03-17T00:09:28.423Z,997.63
2019-03-17T00:10:28.397Z,997.67
2019-03-17T00:11:28.380Z,997.68
2019-03-17T00:12:31.290Z,997.61
2019-03-17T00:13:28.338Z,997.57
2019-03-17T00:14:28.314Z,997.55
2019-03-17T00:15:28.294Z,997.55
2019-03-17T00:16:28.273Z,997.45
2019-03-17T00:17:28.254Z,997.56
2019-03-17T00:18:28.228Z,997.46
2019-03-17T00:19:28.207Z,997.38
2019-03-17T00:20:28.189Z,997.43
2019-03-17T00:21:28.172Z,997.46
2019-03-17T00:22:28.148Z,997.4
2019-03-17T00:23:28.121Z,997.5
2019-03-17T00:24:28.104Z,997.45
2019-03-17T00:25:28.081Z,997.43
2019-03-17T00:26:28.062Z,997.4
2019-03-17T00:27:28.037Z,997.43
2019-03-17T00:28:28.016Z,997.42
2019-03-17T00:29:27.995Z,997.4
2019-03-17T00:30:27.978Z,997.42
2019-03-17T00:31:27.957Z,997.37
2019-03-17T00:32:27.931Z,997.31
2019-03-17T00:33:27.914Z,997.33
2019-03-17T00:34:27.893Z,997.32
2019-03-17T00:35:27.873Z,997.34
2019-03-17T00:36:27.847Z,997.35
2019-03-17T00:37:27.826Z,997.31
2019-03-17T00:38:27.804Z,997.3
2019-03-17T00:39:27.791Z,997.3
2019-03-17T00:40:27.761Z,997.23
2019-03-17T00:41:27.745Z,997.27
2019-03-17T00:42:27.719Z,997.25
2019-03-17T00:43:27.702Z,997.25
2019-03-17T00:44:27.682Z,997.15
2019-03-17T00:45:27.659Z,997.19
2019-03-17T00:46:27.634Z,997.1
2019-03-17T00:47:27.614Z,997.11
2019-03-17T00:48:27.597Z,997.1
2019-03-17T00:49:27.575Z,997.13
2019-03-17T00:50:27.550Z,997.09
2019-03-17T00:51:27.528Z,997.1
2019-03-17T00:52:27.513Z,997.11
2019-03-17T00:53:27.491Z,997.11
2019-03-17T00:54:27.469Z,997.14
2019-03-17T00:55:27.444Z,997.16
2019-03-17T00:56:27.427Z,997.07
2019-03-17T00:57:27.401Z,997.09
2019-03-17T00:58:27.385Z,997.03
2019-03-17T00:59:27.361Z,996.96
2019-03-17T01:00:27.337Z,997.01
2019-03-17T01:01:27.321Z,997.02
2019-03-17T01:02:27.300Z,996.93
2019-03-17T01:03:27.279Z,996.99
2019-03-17T01:04:27.254Z,997.01
2019-03-17T01:05:27.232Z,996.88
2019-03-17T01:06:27.251Z,996.95
2019-03-17T01:07:27.198Z,996.9
2019-03-17T01:08:27.169Z,996.92
2019-03-17T01:09:27.148Z,996.88
2019-03-17T01:10:27.128Z,996.95
2019-03-17T01:11:27.110Z,996.94
2019-03-17T01:12:27.143Z,996.86
2019-03-17T01:13:27.068Z,996.85
2019-03-17T01:14:27.044Z,996.85
2019-03-17T01:15:27.025Z,996.84
2019-03-17T01:16:27.004Z,996.83
2019-03-17T01:17:26.999Z,996.78
2019-03-17T01:18:26.958Z,996.81
2019-03-17T01:19:26.936Z,996.79
2019-03-17T01:20:26.920Z,996.75
2019-03-17T01:21:26.899Z,996.7
2019-03-17T01:22:26.873Z,996.7
2019-03-17T01:23:26.852Z,996.68
2019-03-17T01:24:26.839Z,996.66
2019-03-17T01:25:26.813Z,996.59
2019-03-17T01:26:26.792Z,996.58
2019-03-17T01:27:26.769Z,996.56
2019-03-17T01:28:26.750Z,996.49
2019-03-17T01:29:26.724Z,996.42
2019-03-17T01:30:26.707Z,996.41
2019-03-17T01:31:26.683Z,996.38
2019-03-17T01:32:26.664Z,996.4
2019-03-17T01:33:26.639Z,996.35
2019-03-17T01:34:26.623Z,996.37
2019-03-17T01:35:26.603Z,996.34
2019-03-17T01:36:26.576Z,996.36
2019-03-17T01:37:26.555Z,996.34
2019-03-17T01:38:26.539Z,996.37
2019-03-17T01:39:26.518Z,996.39
2019-03-17T01:40:26.490Z,996.35
2019-03-17T01:41:26.471Z,996.33
2019-03-17T01:42:26.449Z,996.37
2019-03-17T01:43:26.432Z,996.4
2019-03-17T01:44:26.407Z,996.41
2019-03-17T01:45:26.390Z,996.32
2019-03-17T01:46:26.366Z,996.39
2019-03-17T01:47:27.742Z,996.34
2019-03-17T01:48:26.326Z,996.38
2019-03-17T01:49:26.305Z,996.37
2019-03-17T01:50:26.279Z,996.37
2019-03-17T01:51:26.258Z,996.31
2019-03-17T01:52:26.242Z,996.35
2019-03-17T01:53:26.220Z,996.35
2019-03-17T01:54:26.196Z,996.33
2019-03-17T01:55:26.173Z,996.37
2019-03-17T01:56:26.159Z,996.37
2019-03-17T01:57:26.136Z,996.34
2019-03-17T01:58:26.114Z,996.36
2019-03-17T01:59:26.088Z,996.38
2019-03-17T02:00:26.073Z,996.32
2019-03-17T02:01:26.047Z,996.35
2019-03-17T02:02:26.029Z,996.32
2019-03-17T02:03:26.005Z,996.37
2019-03-17T02:04:25.983Z,996.34
2019-03-17T02:05:25.963Z,996.35
2019-03-17T02:06:25.945Z,996.33
2019-03-17T02:07:25.927Z,996.35
2019-03-17T02:08:25.899Z,996.33
2019-03-17T02:09:25.877Z,996.3
2019-03-17T02:10:25.859Z,996.31
2019-03-17T02:11:25.842Z,996.28
2019-03-17T02:12:25.814Z,996.32
2019-03-17T02:13:25.792Z,996.31
2019-03-17T02:14:25.771Z,996.3
2019-03-17T02:15:25.755Z,996.3
2019-03-17T02:16:25.737Z,996.22
2019-03-17T02:17:25.712Z,996.28
2019-03-17T02:18:25.687Z,996.23
2019-03-17T02:19:25.671Z,996.16
2019-03-17T02:20:25.651Z,996.16
2019-03-17T02:21:25.627Z,996.21
2019-03-17T02:22:25.602Z,996.11
2019-03-17T02:23:25.581Z,996.14
2019-03-17T02:24:25.564Z,996.06
2019-03-17T02:25:25.543Z,996.14
2019-03-17T02:26:25.517Z,996.05
2019-03-17T02:27:25.498Z,996.06
2019-03-17T02:28:25.478Z,996.05
2019-03-17T02:29:25.460Z,996.05
2019-03-17T02:30:25.438Z,996.13
2019-03-17T02:31:25.431Z,996.08
2019-03-17T02:32:25.395Z,995.99
2019-03-17T02:33:25.378Z,995.98
2019-03-17T02:34:25.364Z,996
2019-03-17T02:35:37.582Z,996.01
2019-03-17T02:36:25.308Z,996.03
2019-03-17T02:37:25.285Z,995.91
2019-03-17T02:38:25.268Z,995.93
2019-03-17T02:39:26.333Z,995.93
2019-03-17T02:40:25.223Z,995.9
2019-03-17T02:41:25.201Z,995.87
2019-03-17T02:42:25.183Z,995.94
2019-03-17T02:43:25.163Z,995.86
2019-03-17T02:44:25.143Z,995.92
2019-03-17T02:45:25.117Z,995.94
2019-03-17T02:46:25.097Z,995.83
2019-03-17T02:47:25.082Z,995.9
2019-03-17T02:48:25.054Z,995.87
2019-03-17T02:49:25.045Z,995.86
2019-03-17T02:50:25.010Z,995.8
2019-03-17T02:51:25.005Z,995.74
2019-03-17T02:52:24.986Z,995.68
2019-03-17T02:53:24.951Z,995.65
2019-03-17T02:54:24.930Z,995.71
2019-03-17T02:55:24.910Z,995.59
2019-03-17T02:56:24.884Z,995.65
2019-03-17T02:57:24.868Z,995.65
2019-03-17T02:58:24.851Z,995.62
2019-03-17T02:59:24.824Z,995.61
2019-03-17T03:00:24.816Z,995.63
2019-03-17T03:01:24.777Z,995.61
2019-03-17T03:02:24.757Z,995.61
2019-03-17T03:03:24.744Z,995.54
2019-03-17T03:04:24.715Z,995.63
2019-03-17T03:05:24.698Z,995.53
2019-03-17T03:06:24.672Z,995.54
2019-03-17T03:07:24.663Z,995.48
2019-03-17T03:08:24.633Z,995.47
2019-03-17T03:09:24.615Z,995.49
2019-03-17T03:10:24.588Z,995.44
2019-03-17T03:11:24.568Z,995.42
2019-03-17T03:12:24.549Z,995.43
2019-03-17T03:13:24.529Z,995.43
2019-03-17T03:14:24.504Z,995.41
2019-03-17T03:15:24.482Z,995.37
2019-03-17T03:16:24.470Z,995.39
2019-03-17T03:17:24.445Z,995.42
2019-03-17T03:18:24.422Z,995.43
2019-03-17T03:19:24.397Z,995.39
2019-03-17T03:20:24.381Z,995.35
2019-03-17T03:21:24.354Z,995.39
2019-03-17T03:22:24.342Z,995.44
2019-03-17T03:23:24.314Z,995.33
2019-03-17T03:24:24.292Z,995.39
2019-03-17T03:25:24.275Z,995.33
2019-03-17T03:26:24.254Z,995.35
2019-03-17T03:27:24.231Z,995.28
2019-03-17T03:28:24.211Z,995.27
2019-03-17T03:29:27.174Z,995.26
2019-03-17T03:30:24.169Z,995.26
2019-03-17T03:31:24.148Z,995.27
2019-03-17T03:32:24.126Z,995.26
2019-03-17T03:33:24.114Z,995.29
2019-03-17T03:34:24.079Z,995.28
2019-03-17T03:35:24.062Z,995.38
2019-03-17T03:36:24.039Z,995.34
2019-03-17T03:37:24.019Z,995.35
2019-03-17T03:38:23.994Z,995.27
2019-03-17T03:39:23.980Z,995.29
2019-03-17T03:40:23.959Z,995.38
2019-03-17T03:41:24.082Z,995.32
2019-03-17T03:42:23.994Z,995.36
2019-03-17T03:43:23.897Z,995.35
2019-03-17T03:44:23.872Z,995.3
2019-03-17T03:45:23.851Z,995.34
2019-03-17T03:46:23.824Z,995.32
2019-03-17T03:47:23.804Z,995.35
2019-03-17T03:48:23.789Z,995.31
2019-03-17T03:49:23.767Z,995.36
2019-03-17T03:50:23.755Z,995.36
2019-03-17T03:51:23.720Z,995.35
2019-03-17T03:52:23.701Z,995.37
2019-03-17T03:53:23.679Z,995.3
2019-03-17T03:54:23.661Z,995.35
2019-03-17T03:55:23.634Z,995.36
2019-03-17T03:56:23.614Z,995.33
2019-03-17T03:57:23.595Z,995.32
2019-03-17T03:58:23.577Z,995.36
2019-03-17T03:59:23.554Z,995.26
2019-03-17T04:00:23.537Z,995.25
2019-03-17T04:01:23.514Z,995.28
2019-03-17T04:02:23.491Z,995.26
2019-03-17T04:03:23.469Z,995.31
2019-03-17T04:04:23.443Z,995.25
2019-03-17T04:05:23.421Z,995.32
2019-03-17T04:06:26.626Z,995.27
2019-03-17T04:07:23.386Z,995.2
2019-03-17T04:08:23.360Z,995.28
2019-03-17T04:09:23.344Z,995.26
2019-03-17T04:10:23.316Z,995.18
2019-03-17T04:11:23.300Z,995.22
2019-03-17T04:12:23.279Z,995.28
2019-03-17T04:13:23.258Z,995.25
2019-03-17T04:14:23.233Z,995.19
2019-03-17T04:15:23.211Z,995.23
2019-03-17T04:16:23.228Z,995.23
2019-03-17T04:17:23.174Z,995.2
2019-03-17T04:18:23.148Z,995.16
2019-03-17T04:19:23.127Z,995.12
2019-03-17T04:20:23.202Z,995.11
2019-03-17T04:21:23.088Z,995.16
2019-03-17T04:22:23.071Z,995.2
2019-03-17T04:23:23.046Z,995.16
2019-03-17T04:24:23.171Z,995.15
2019-03-17T04:25:23.002Z,995.2
2019-03-17T04:26:22.985Z,995.16
2019-03-17T04:27:22.957Z,995.13
2019-03-17T04:28:22.936Z,995.14
2019-03-17T04:29:22.915Z,995.07
2019-03-17T04:30:22.900Z,995.15
2019-03-17T04:31:22.878Z,995.2
2019-03-17T04:32:22.852Z,995.11
2019-03-17T04:33:22.831Z,995.16
2019-03-17T04:34:22.821Z,995.12
2019-03-17T04:35:22.792Z,995.14
2019-03-17T04:36:22.766Z,995.14
2019-03-17T04:37:22.746Z,995.21
2019-03-17T04:38:22.726Z,995.05
2019-03-17T04:39:22.708Z,995.12
2019-03-17T04:40:22.689Z,995.16
2019-03-17T04:41:22.669Z,995.15
2019-03-17T04:42:22.642Z,995.18
2019-03-17T04:43:22.625Z,995.19
2019-03-17T04:44:22.601Z,995.13
2019-03-17T04:45:22.582Z,995.12
2019-03-17T04:46:22.555Z,995.1
2019-03-17T04:47:22.535Z,995.17
2019-03-17T04:48:22.519Z,995.25
2019-03-17T04:49:22.497Z,995.21
2019-03-17T04:50:22.471Z,995.21
2019-03-17T04:51:22.449Z,995.14
2019-03-17T04:52:22.433Z,995.13
2019-03-17T04:53:22.412Z,995.15
2019-03-17T04:54:22.390Z,995.21
2019-03-17T04:55:22.364Z,995.25
2019-03-17T04:56:22.349Z,995.24
2019-03-17T04:57:22.321Z,995.3
2019-03-17T04:58:22.305Z,995.21
2019-03-17T04:59:22.281Z,995.33
2019-03-17T05:00:22.260Z,995.2
2019-03-17T05:01:22.238Z,995.29
2019-03-17T05:02:22.221Z,995.24
2019-03-17T05:03:22.201Z,995.25
2019-03-17T05:04:22.175Z,995.26
2019-03-17T05:05:22.153Z,995.22
2019-03-17T05:06:22.135Z,995.22
2019-03-17T05:07:22.116Z,995.21
2019-03-17T05:08:22.089Z,995.1
2019-03-17T05:09:22.069Z,995.22
2019-03-17T05:10:22.950Z,995.2
2019-03-17T05:11:22.031Z,995.24
2019-03-17T05:12:22.005Z,995.19
2019-03-17T05:13:21.989Z,995.24
2019-03-17T05:14:21.964Z,995.33
2019-03-17T05:15:21.950Z,995.16
2019-03-17T05:16:21.926Z,995.17
2019-03-17T05:17:21.905Z,995.2
2019-03-17T05:18:21.880Z,995.23
2019-03-17T05:19:21.857Z,995.12
2019-03-17T05:20:21.840Z,995.15
2019-03-17T05:21:21.819Z,995.14
2019-03-17T05:22:21.793Z,995.13
2019-03-17T05:23:21.773Z,995.13
2019-03-17T05:24:21.756Z,995.2
2019-03-17T05:25:21.734Z,995.17
2019-03-17T05:26:21.714Z,995.16
2019-03-17T05:27:21.687Z,995.17
2019-03-17T05:28:23.153Z,995.21
2019-03-17T05:29:21.649Z,995.15
2019-03-17T05:30:21.628Z,995.13
2019-03-17T05:31:21.604Z,995.18
2019-03-17T05:32:21.583Z,995.2
2019-03-17T05:33:21.560Z,995.18
2019-03-17T05:34:21.544Z,995.2
2019-03-17T05:35:21.522Z,995.21
2019-03-17T05:36:21.500Z,995.2
2019-03-17T05:37:21.478Z,995.27
2019-03-17T05:38:21.460Z,995.26
2019-03-17T05:39:21.440Z,995.21
2019-03-17T05:40:21.413Z,995.24
2019-03-17T05:41:21.391Z,995.24
2019-03-17T05:42:21.371Z,995.23
2019-03-17T05:43:21.356Z,995.26
2019-03-17T05:44:21.328Z,995.32
2019-03-17T05:45:21.311Z,995.27
2019-03-17T05:46:21.286Z,995.22
2019-03-17T05:47:21.269Z,995.24
2019-03-17T05:48:21.248Z,995.32
2019-03-17T05:49:21.228Z,995.31
2019-03-17T05:50:21.202Z,995.27
2019-03-17T05:51:21.181Z,995.28
2019-03-17T05:52:21.166Z,995.23
2019-03-17T05:53:21.143Z,995.26
2019-03-17T05:54:21.118Z,995.27
2019-03-17T05:55:21.097Z,995.25
2019-03-17T05:56:21.080Z,995.3
2019-03-17T05:57:21.061Z,995.24
2019-03-17T05:58:21.038Z,995.3
2019-03-17T05:59:21.012Z,995.29
2019-03-17T06:00:20.995Z,995.34
2019-03-17T06:01:20.969Z,995.39
2019-03-17T06:02:20.953Z,995.41
2019-03-17T06:03:20.928Z,995.41
2019-03-17T06:04:20.907Z,995.46
2019-03-17T06:05:20.885Z,995.49
2019-03-17T06:06:20.868Z,995.49
2019-03-17T06:07:20.847Z,995.49
2019-03-17T06:08:20.821Z,995.48
2019-03-17T06:09:20.800Z,995.41
2019-03-17T06:10:20.783Z,995.41
2019-03-17T06:11:20.762Z,995.46
2019-03-17T06:12:20.736Z,995.45
2019-03-17T06:13:20.715Z,995.48
2019-03-17T06:14:20.694Z,995.52
2019-03-17T06:15:20.677Z,995.51
2019-03-17T06:16:20.652Z,995.47
2019-03-17T06:17:20.637Z,995.49
2019-03-17T06:18:20.610Z,995.51
2019-03-17T06:19:20.588Z,995.53
2019-03-17T06:20:20.567Z,995.5
2019-03-17T06:21:20.546Z,995.54
2019-03-17T06:22:20.528Z,995.53
2019-03-17T06:23:20.508Z,995.6
2019-03-17T06:24:20.485Z,995.61
2019-03-17T06:25:20.472Z,995.59
2019-03-17T06:26:20.444Z,995.65
2019-03-17T06:27:20.424Z,995.67
2019-03-17T06:28:21.585Z,995.66
2019-03-17T06:29:20.377Z,995.6
2019-03-17T06:30:20.355Z,995.62
2019-03-17T06:31:20.339Z,995.65
2019-03-17T06:32:20.312Z,995.62
2019-03-17T06:33:20.297Z,995.66
2019-03-17T06:34:20.273Z,995.64
2019-03-17T06:35:20.255Z,995.62
2019-03-17T06:36:20.232Z,995.62
2019-03-17T06:37:30.405Z,995.69
2019-03-17T06:38:20.186Z,995.72
2019-03-17T06:39:20.165Z,995.73
2019-03-17T06:40:20.148Z,995.68
2019-03-17T06:41:20.127Z,995.72
2019-03-17T06:42:20.103Z,995.8
2019-03-17T06:43:20.080Z,995.81
2019-03-17T06:44:20.063Z,995.78
2019-03-17T06:45:20.043Z,995.78
2019-03-17T06:46:20.021Z,995.77
2019-03-17T06:47:19.995Z,995.81
2019-03-17T06:48:19.980Z,995.83
2019-03-17T06:49:19.955Z,995.85
2019-03-17T06:50:19.937Z,995.85
2019-03-17T06:51:19.910Z,995.9
2019-03-17T06:52:19.891Z,995.82
2019-03-17T06:53:19.869Z,995.92
2019-03-17T06:54:19.851Z,995.89
2019-03-17T06:55:19.830Z,995.92
2019-03-17T06:56:19.807Z,995.95
2019-03-17T06:57:19.784Z,995.98
2019-03-17T06:58:19.766Z,995.98
2019-03-17T06:59:19.745Z,996.02
2019-03-17T07:00:19.726Z,996.06
2019-03-17T07:01:19.700Z,995.95
2019-03-17T07:02:19.676Z,996.08
2019-03-17T07:03:19.661Z,996.09
2019-03-17T07:04:19.635Z,996.04
2019-03-17T07:05:19.618Z,996.08
2019-03-17T07:06:19.599Z,996.09
2019-03-17T07:07:19.577Z,996.12
2019-03-17T07:08:19.556Z,996.07
2019-03-17T07:09:19.534Z,996.07
2019-03-17T07:10:19.508Z,996.16
2019-03-17T07:11:19.487Z,996.15
2019-03-17T07:12:19.471Z,996.19
2019-03-17T07:13:19.449Z,996.16
2019-03-17T07:14:19.424Z,996.23
2019-03-17T07:15:19.403Z,996.27
2019-03-17T07:16:19.385Z,996.27
2019-03-17T07:17:19.550Z,996.27
2019-03-17T07:18:19.343Z,996.3
2019-03-17T07:19:19.317Z,996.33
2019-03-17T07:20:19.309Z,996.25
2019-03-17T07:21:19.286Z,996.38
2019-03-17T07:22:19.259Z,996.39
2019-03-17T07:23:19.233Z,996.38
2019-03-17T07:24:19.212Z,996.43
2019-03-17T07:25:19.192Z,996.42
2019-03-17T07:26:19.175Z,996.49
2019-03-17T07:27:19.153Z,996.47
2019-03-17T07:28:19.129Z,996.58
2019-03-17T07:29:19.113Z,996.55
2019-03-17T07:30:19.091Z,996.55
2019-03-17T07:31:19.069Z,996.54
2019-03-17T07:32:19.043Z,996.57
2019-03-17T07:33:19.026Z,996.64
2019-03-17T07:34:19.000Z,996.62
2019-03-17T07:35:18.983Z,996.65
2019-03-17T07:36:18.959Z,996.98
2019-03-17T07:37:18.942Z,996.74
2019-03-17T07:38:18.916Z,996.79
2019-03-17T07:39:18.899Z,996.81
2019-03-17T07:40:18.878Z,996.85
2019-03-17T07:41:18.871Z,996.8
2019-03-17T07:42:18.830Z,996.89
2019-03-17T07:43:18.810Z,996.84
2019-03-17T07:44:18.793Z,996.94
2019-03-17T07:45:18.772Z,996.83
2019-03-17T07:46:18.752Z,996.94
2019-03-17T07:47:18.726Z,996.9
2019-03-17T07:48:18.709Z,996.98
2019-03-17T07:49:18.690Z,996.97
2019-03-17T07:50:18.666Z,996.95
2019-03-17T07:51:18.641Z,996.96
2019-03-17T07:52:18.624Z,996.99
2019-03-17T07:53:18.598Z,996.95
2019-03-17T07:54:18.581Z,996.89
2019-03-17T07:55:18.565Z,996.9
2019-03-17T07:56:18.533Z,996.87
2019-03-17T07:57:18.519Z,996.98
2019-03-17T07:58:18.498Z,996.93
2019-03-17T07:59:18.477Z,996.93
2019-03-17T08:00:30.817Z,996.99
2019-03-17T08:01:18.435Z,997.04
2019-03-17T08:02:18.408Z,997.17
2019-03-17T08:03:18.387Z,997.22
2019-03-17T08:04:18.370Z,997.26
2019-03-17T08:05:18.348Z,997.35
2019-03-17T08:06:18.330Z,997.33
2019-03-17T08:07:19.391Z,997.35
2019-03-17T08:08:18.285Z,997.4
2019-03-17T08:09:18.260Z,997.38
2019-03-17T08:10:18.243Z,997.39
2019-03-17T08:11:18.217Z,997.41
2019-03-17T08:12:18.197Z,997.44
2019-03-17T08:13:18.175Z,997.43
2019-03-17T08:14:18.158Z,997.48
2019-03-17T08:15:18.136Z,997.44
2019-03-17T08:16:18.111Z,997.44
2019-03-17T08:17:18.089Z,997.41
2019-03-17T08:18:18.073Z,997.38
2019-03-17T08:19:18.052Z,997.33
2019-03-17T08:20:18.026Z,997.34
2019-03-17T08:21:18.004Z,997.47
2019-03-17T08:22:17.983Z,997.39
2019-03-17T08:23:17.967Z,997.47
2019-03-17T08:24:17.941Z,997.51
2019-03-17T08:25:17.972Z,997.52
2019-03-17T08:26:17.918Z,997.43
2019-03-17T08:27:17.925Z,997.45
2019-03-17T08:28:17.900Z,997.43
2019-03-17T08:29:17.865Z,997.64
2019-03-17T08:30:17.818Z,997.66
2019-03-17T08:31:17.796Z,997.64
2019-03-17T08:32:17.776Z,997.55
2019-03-17T08:33:17.754Z,997.66
2019-03-17T08:34:17.728Z,997.68
2019-03-17T08:35:17.709Z,997.67
2019-03-17T08:36:17.691Z,997.71
2019-03-17T08:37:17.673Z,997.75
2019-03-17T08:38:22.020Z,997.7
2019-03-17T08:39:17.623Z,997.77
2019-03-17T08:40:17.605Z,997.84
2019-03-17T08:41:17.580Z,997.91
2019-03-17T08:42:17.564Z,997.88
2019-03-17T08:43:17.537Z,997.9
2019-03-17T08:44:17.516Z,997.89
2019-03-17T08:45:17.496Z,997.92
2019-03-17T08:46:17.479Z,997.92
2019-03-17T08:47:17.459Z,997.93
2019-03-17T08:48:17.431Z,997.88
2019-03-17T08:49:17.411Z,997.9
2019-03-17T08:50:17.395Z,997.9
2019-03-17T08:51:17.391Z,997.91
2019-03-17T08:52:17.348Z,997.88
2019-03-17T08:53:17.327Z,997.91
2019-03-17T08:54:17.306Z,997.95
2019-03-17T08:55:17.287Z,998.06
2019-03-17T08:56:17.263Z,998.06
2019-03-17T08:57:17.252Z,997.95
2019-03-17T08:58:17.220Z,998.02
2019-03-17T08:59:17.204Z,998.06
2019-03-17T09:00:17.183Z,998.04
2019-03-17T09:01:17.162Z,998.08
2019-03-17T09:02:17.136Z,998.13
2019-03-17T09:03:17.115Z,998.07
2019-03-17T09:04:17.098Z,998.08
2019-03-17T09:05:17.077Z,998.05
2019-03-17T09:06:17.051Z,997.91
2019-03-17T09:07:17.075Z,997.9
2019-03-17T09:08:17.015Z,997.98
2019-03-17T09:09:16.992Z,998.01
2019-03-17T09:10:16.971Z,998.1
2019-03-17T09:11:16.946Z,998.26
2019-03-17T09:12:16.929Z,998.15
2019-03-17T09:13:16.903Z,998.12
2019-03-17T09:14:16.887Z,998.12
2019-03-17T09:15:16.860Z,998.11
2019-03-17T09:16:16.839Z,998.15
2019-03-17T09:17:16.818Z,998.19
2019-03-17T09:18:16.802Z,998.37
2019-03-17T09:19:16.780Z,998.22
2019-03-17T09:20:16.754Z,998.22
2019-03-17T09:21:16.733Z,998.14
2019-03-17T09:22:16.717Z,998.18
2019-03-17T09:23:16.696Z,998.24
2019-03-17T09:24:17.666Z,998.22
2019-03-17T09:25:16.650Z,998.3
2019-03-17T09:26:16.627Z,998.28
2019-03-17T09:27:16.612Z,998.3
2019-03-17T09:28:16.586Z,998.44
2019-03-17T09:29:16.568Z,998.43
2019-03-17T09:30:16.544Z,998.43
2019-03-17T09:31:16.526Z,998.51
2019-03-17T09:32:16.505Z,998.5
2019-03-17T09:33:16.485Z,998.55
2019-03-17T09:34:16.458Z,998.5
2019-03-17T09:35:16.437Z,998.43
2019-03-17T09:36:16.420Z,998.51
2019-03-17T09:37:16.399Z,998.4
2019-03-17T09:38:16.374Z,998.41
2019-03-17T09:39:16.350Z,998.35
2019-03-17T09:40:16.334Z,998.39
2019-03-17T09:41:16.314Z,998.35
2019-03-17T09:42:16.292Z,998.29
2019-03-17T09:43:16.342Z,998.27
2019-03-17T09:44:16.246Z,998.33
2019-03-17T09:45:16.233Z,998.32
2019-03-17T09:46:16.203Z,998.42
2019-03-17T09:47:16.186Z,998.39
2019-03-17T09:48:16.165Z,998.47
2019-03-17T09:49:16.144Z,998.5
2019-03-17T09:50:16.122Z,998.45
2019-03-17T09:51:16.097Z,998.72
2019-03-17T09:52:16.081Z,998.45
2019-03-17T09:53:16.059Z,998.48
2019-03-17T09:54:16.033Z,998.41
2019-03-17T09:55:16.014Z,998.44
2019-03-17T09:56:15.996Z,998.46
2019-03-17T09:57:15.975Z,998.53
2019-03-17T09:58:15.955Z,998.53
2019-03-17T09:59:15.929Z,998.52
2019-03-17T10:00:15.912Z,998.56
2019-03-17T10:01:15.886Z,998.63
2019-03-17T10:02:15.869Z,998.63
2019-03-17T10:03:15.843Z,998.69
2019-03-17T10:04:15.822Z,998.66
2019-03-17T10:05:15.801Z,998.61
2019-03-17T10:06:15.784Z,998.56
2019-03-17T10:07:15.764Z,998.6
2019-03-17T10:08:15.737Z,998.56
2019-03-17T10:09:15.716Z,998.62
2019-03-17T10:10:15.701Z,998.67
2019-03-17T10:11:15.681Z,998.65
2019-03-17T10:12:15.653Z,998.63
2019-03-17T10:13:15.633Z,998.64
2019-03-17T10:14:15.611Z,998.67
2019-03-17T10:15:15.598Z,998.73
2019-03-17T10:16:15.568Z,998.85
2019-03-17T10:17:15.552Z,998.77
2019-03-17T10:18:15.526Z,998.79
2019-03-17T10:19:15.509Z,998.81
2019-03-17T10:20:15.487Z,998.76
2019-03-17T10:21:15.467Z,998.88
2019-03-17T10:22:15.442Z,998.74
2019-03-17T10:23:15.420Z,998.77
2019-03-17T10:24:15.403Z,998.76
2019-03-17T10:25:15.383Z,998.77
2019-03-17T10:26:15.356Z,998.78
2019-03-17T10:27:15.336Z,998.8
2019-03-17T10:28:15.319Z,998.82
2019-03-17T10:29:15.298Z,998.8
2019-03-17T10:30:15.276Z,998.85
2019-03-17T10:31:15.252Z,998.81
2019-03-17T10:32:15.234Z,998.84
2019-03-17T10:33:15.209Z,998.89
2019-03-17T10:34:15.193Z,998.87
2019-03-17T10:35:15.168Z,998.87
2019-03-17T10:36:15.146Z,998.84
2019-03-17T10:37:15.129Z,998.86
2019-03-17T10:38:15.108Z,998.87
2019-03-17T10:39:15.089Z,998.93
2019-03-17T10:40:15.063Z,998.92
2019-03-17T10:41:15.039Z,998.96
2019-03-17T10:42:15.031Z,999
2019-03-17T10:43:15.003Z,998.98
2019-03-17T10:44:14.975Z,998.96
2019-03-17T10:45:14.955Z,999.01
2019-03-17T10:46:14.936Z,999.05
2019-03-17T10:47:14.922Z,998.99
2019-03-17T10:48:14.906Z,999.04
2019-03-17T10:49:14.875Z,998.96
2019-03-17T10:50:14.850Z,999.04
2019-03-17T10:51:14.833Z,999.04
2019-03-17T10:52:14.811Z,999
2019-03-17T10:53:14.789Z,999.05
2019-03-17T10:54:15.024Z,999.02
2019-03-17T10:55:14.743Z,999.03
2019-03-17T10:56:14.726Z,999.06
2019-03-17T10:57:14.705Z,999.06
2019-03-17T10:58:14.681Z,999.03
2019-03-17T10:59:14.658Z,999.06
2019-03-17T11:00:14.642Z,999.03
2019-03-17T11:01:14.622Z,999.1
2019-03-17T11:02:14.600Z,999.04
2019-03-17T11:03:14.574Z,999.04
2019-03-17T11:04:14.558Z,999.03
2019-03-17T11:05:14.537Z,998.98
2019-03-17T11:06:14.515Z,999.02
2019-03-17T11:07:14.491Z,999.04
2019-03-17T11:08:14.470Z,999.04
2019-03-17T11:09:24.551Z,999.03
2019-03-17T11:10:14.430Z,999.03
2019-03-17T11:11:14.412Z,999.13
2019-03-17T11:12:14.384Z,999.1
2019-03-17T11:13:14.364Z,999.15
2019-03-17T11:14:14.346Z,999.15
2019-03-17T11:15:14.326Z,999.23
2019-03-17T11:16:14.300Z,999.26
2019-03-17T11:17:14.280Z,999.32
2019-03-17T11:18:14.258Z,999.28
2019-03-17T11:19:14.241Z,999.3
2019-03-17T11:20:14.220Z,999.26
2019-03-17T11:21:14.198Z,999.22
2019-03-17T11:22:14.172Z,999.19
2019-03-17T11:23:14.157Z,999.26
2019-03-17T11:24:14.136Z,999.22
2019-03-17T11:25:14.114Z,999.3
2019-03-17T11:26:14.089Z,999.18
2019-03-17T11:27:14.068Z,999.33
2019-03-17T11:28:14.059Z,999.35
2019-03-17T11:29:14.030Z,999.3
2019-03-17T11:30:14.004Z,999.36
2019-03-17T11:31:13.985Z,999.36
2019-03-17T11:32:13.967Z,999.42
2019-03-17T11:33:13.946Z,999.49
2019-03-17T11:34:13.925Z,999.51
2019-03-17T11:35:13.902Z,999.54
2019-03-17T11:36:13.882Z,999.49
2019-03-17T11:37:13.858Z,999.44
2019-03-17T11:38:13.842Z,999.51
2019-03-17T11:39:13.815Z,999.54
2019-03-17T11:40:13.795Z,999.53
2019-03-17T11:41:13.774Z,999.66
2019-03-17T11:42:13.758Z,999.71
2019-03-17T11:43:13.736Z,999.71
2019-03-17T11:44:13.711Z,999.79
2019-03-17T11:45:13.694Z,999.77
2019-03-17T11:46:13.674Z,999.77
2019-03-17T11:47:13.652Z,999.8
2019-03-17T11:48:13.629Z,999.8
2019-03-17T11:49:13.606Z,999.89
2019-03-17T11:50:13.584Z,999.79
2019-03-17T11:51:13.569Z,999.8
2019-03-17T11:52:13.543Z,999.91
2019-03-17T11:53:13.526Z,999.86
2019-03-17T11:54:13.500Z,999.95
2019-03-17T11:55:13.484Z,999.88
2019-03-17T11:56:13.463Z,999.92
2019-03-17T11:57:13.443Z,999.91
2019-03-17T11:58:13.417Z,999.92
2019-03-17T11:59:13.398Z,999.94
2019-03-17T12:00:13.382Z,1000.04
2019-03-17T12:01:13.358Z,999.95
2019-03-17T12:02:25.606Z,1000.01
2019-03-17T12:03:13.313Z,1000.02
2019-03-17T12:04:13.296Z,999.97
2019-03-17T12:05:13.274Z,999.97
2019-03-17T12:06:13.254Z,1000.03
2019-03-17T12:07:13.229Z,1000.03
2019-03-17T12:08:13.214Z,999.99
2019-03-17T12:09:13.319Z,999.96
2019-03-17T12:10:13.171Z,1000.02
2019-03-17T12:11:13.148Z,999.97
2019-03-17T12:12:13.124Z,1000.11
2019-03-17T12:13:13.103Z,1000.14
2019-03-17T12:14:13.087Z,1000.17
2019-03-17T12:15:13.067Z,1000.18
2019-03-17T12:16:13.042Z,1000.2
2019-03-17T12:17:13.020Z,1000.15
2019-03-17T12:18:13.004Z,1000.32
2019-03-17T12:19:12.982Z,1000.27
2019-03-17T12:20:12.957Z,1000.31
2019-03-17T12:21:12.936Z,1000.32
2019-03-17T12:22:12.916Z,1000.35
2019-03-17T12:23:12.898Z,1000.38
2019-03-17T12:24:12.877Z,1000.4
2019-03-17T12:25:12.864Z,1000.45
2019-03-17T12:26:12.832Z,1000.38
2019-03-17T12:27:12.814Z,1000.41
2019-03-17T12:28:12.794Z,1000.42
2019-03-17T12:29:12.773Z,1000.42
2019-03-17T12:30:12.747Z,1000.4